createdAt,value
2018-05-24T00:00:38.247Z,2.67
2018-05-24T00:03:06.956Z,3.20
2018-05-24T00:05:35.250Z,3.67
2018-05-24T00:08:03.641Z,3.97
2018-05-24T00:10:32.242Z,2.87
2018-05-24T00:13:01.294Z,2.83
2018-05-24T00:15:29.582Z,2.83
2018-05-24T00:17:58.188Z,3.10
2018-05-24T00:20:26.711Z,3.80
2018-05-24T00:22:54.988Z,2.60
2018-05-24T00:25:23.310Z,3.60
2018-05-24T00:27:51.895Z,2.80
2018-05-24T00:30:20.181Z,3.00
2018-05-24T00:32:48.459Z,3.10
2018-05-24T00:35:17.004Z,2.50
2018-05-24T00:37:46.048Z,2.77
2018-05-24T00:40:14.470Z,4.10
2018-05-24T00:42:42.754Z,2.90
2018-05-24T00:45:11.031Z,3.77
2018-05-24T00:47:39.349Z,3.00
2018-05-24T00:50:07.638Z,3.10
2018-05-24T00:52:35.929Z,2.83
2018-05-24T00:55:16.322Z,3.13
2018-05-24T00:57:44.673Z,3.30
2018-05-24T01:00:13.357Z,3.40
2018-05-24T01:02:41.665Z,3.00
2018-05-24T01:05:09.948Z,3.10
2018-05-24T01:07:38.256Z,3.50
2018-05-24T01:10:08.269Z,3.77
2018-05-24T01:12:36.557Z,2.47
2018-05-24T01:15:04.846Z,2.83
2018-05-24T01:17:33.165Z,3.30
2018-05-24T01:20:01.852Z,3.70
2018-05-24T01:22:30.206Z,3.17
2018-05-24T01:24:58.485Z,3.10
2018-05-24T01:27:26.887Z,2.63
2018-05-24T01:29:55.177Z,3.20
2018-05-24T01:32:23.491Z,3.50
2018-05-24T01:34:51.878Z,3.00
2018-05-24T01:37:32.152Z,3.50
2018-05-24T01:40:00.473Z,2.90
2018-05-24T01:42:29.563Z,3.97
2018-05-24T01:44:57.853Z,3.43
2018-05-24T01:47:26.551Z,3.07
2018-05-24T01:49:54.924Z,3.20
2018-05-24T01:52:23.212Z,2.83
2018-05-24T01:54:51.612Z,2.83
2018-05-24T01:57:19.889Z,3.40
2018-05-24T01:59:48.289Z,3.00
2018-05-24T02:02:16.595Z,2.60
2018-05-24T02:04:45.681Z,3.33
2018-05-24T02:07:14.024Z,3.17
2018-05-24T02:09:42.385Z,3.67
2018-05-24T02:12:10.683Z,4.20
2018-05-24T02:14:40.186Z,3.17
2018-05-24T02:17:08.560Z,3.47
2018-05-24T02:19:36.849Z,2.70
2018-05-24T02:22:05.195Z,3.00
2018-05-24T02:24:33.485Z,3.90
2018-05-24T02:27:01.765Z,3.83
2018-05-24T02:29:30.333Z,3.60
2018-05-24T02:31:58.669Z,4.90
2018-05-24T02:34:26.954Z,3.00
2018-05-24T02:36:55.293Z,2.80
2018-05-24T02:39:23.873Z,3.67
2018-05-24T02:41:52.158Z,3.43
2018-05-24T02:44:20.473Z,3.47
2018-05-24T02:46:48.853Z,3.37
2018-05-24T02:49:17.144Z,3.20
2018-05-24T02:51:45.841Z,4.40
2018-05-24T02:54:14.141Z,3.23
2018-05-24T02:56:42.416Z,3.20
2018-05-24T02:59:10.822Z,3.80
2018-05-24T03:01:39.249Z,3.53
2018-05-24T03:04:07.543Z,2.83
2018-05-24T03:06:35.865Z,3.70
2018-05-24T03:09:04.197Z,4.63
2018-05-24T03:11:33.278Z,4.07
2018-05-24T03:14:01.680Z,3.43
2018-05-24T03:16:30.013Z,3.23
2018-05-24T03:18:58.345Z,4.00
2018-05-24T03:21:26.641Z,3.30
2018-05-24T03:23:56.670Z,2.97
2018-05-24T03:26:25.066Z,3.97
2018-05-24T03:28:53.458Z,2.80
2018-05-24T03:31:23.282Z,3.30
2018-05-24T03:33:51.670Z,3.50
2018-05-24T03:36:20.046Z,3.40
2018-05-24T03:38:48.765Z,3.13
2018-05-24T03:41:17.064Z,3.33
2018-05-24T03:43:46.861Z,3.10
2018-05-24T03:46:15.194Z,3.20
2018-05-24T03:48:44.254Z,2.60
2018-05-24T03:51:12.540Z,2.97
2018-05-24T03:53:40.876Z,2.90
2018-05-24T03:56:09.161Z,3.03
2018-05-24T03:58:37.516Z,3.27
2018-05-24T04:01:18.013Z,3.43
2018-05-24T04:03:49.093Z,2.90
2018-05-24T04:06:18.385Z,2.70
2018-05-24T04:08:48.187Z,2.70
2018-05-24T04:11:16.478Z,2.30
2018-05-24T04:13:44.793Z,2.50
2018-05-24T04:16:13.086Z,3.07
2018-05-24T04:18:41.364Z,2.50
2018-05-24T04:21:09.693Z,2.80
2018-05-24T04:23:38.797Z,2.90
2018-05-24T04:26:07.854Z,2.27
2018-05-24T04:28:36.128Z,2.90
2018-05-24T04:31:04.453Z,3.50
2018-05-24T04:33:32.734Z,3.20
2018-05-24T04:36:01.069Z,2.57
2018-05-24T04:38:30.122Z,2.80
2018-05-24T04:40:58.410Z,2.90
2018-05-24T04:43:26.727Z,3.10
2018-05-24T04:45:55.197Z,3.30
2018-05-24T04:48:23.538Z,3.90
2018-05-24T04:50:52.629Z,2.90
2018-05-24T04:53:21.682Z,2.53
2018-05-24T04:55:49.961Z,2.63
2018-05-24T04:58:18.409Z,3.00
2018-05-24T05:00:46.684Z,3.30
2018-05-24T05:03:15.778Z,3.57
2018-05-24T05:05:44.077Z,2.73
2018-05-24T05:08:12.360Z,3.27
2018-05-24T05:10:40.680Z,3.57
2018-05-24T05:13:09.054Z,3.30
2018-05-24T05:15:38.881Z,3.80
2018-05-24T05:18:09.209Z,3.23
2018-05-24T05:20:37.494Z,2.97
2018-05-24T05:23:05.899Z,3.07
2018-05-24T05:25:34.490Z,3.67
2018-05-24T05:28:03.241Z,3.90
2018-05-24T05:30:31.574Z,2.80
2018-05-24T05:32:59.864Z,4.00
2018-05-24T05:35:28.267Z,2.80
2018-05-24T05:37:56.551Z,2.70
2018-05-24T05:40:24.936Z,3.33
2018-05-24T05:42:53.332Z,2.57
2018-05-24T05:45:21.612Z,3.23
2018-05-24T05:47:49.933Z,3.97
2018-05-24T05:50:18.986Z,3.47
2018-05-24T05:52:47.325Z,3.50
2018-05-24T05:55:15.622Z,3.30
2018-05-24T05:57:44.706Z,3.60
2018-05-24T06:00:13.042Z,3.27
2018-05-24T06:02:41.335Z,3.83
2018-05-24T06:05:09.613Z,3.10
2018-05-24T06:07:37.960Z,3.20
2018-05-24T06:10:06.666Z,3.70
2018-05-24T06:12:35.707Z,4.77
2018-05-24T06:15:04.756Z,3.63
2018-05-24T06:17:33.081Z,3.27
2018-05-24T06:20:01.406Z,3.20
2018-05-24T06:22:29.738Z,3.20
2018-05-24T06:24:58.025Z,3.73
2018-05-24T06:27:26.347Z,2.80
2018-05-24T06:29:54.674Z,3.87
2018-05-24T06:32:22.998Z,3.13
2018-05-24T06:34:51.289Z,3.53
2018-05-24T06:37:21.159Z,3.67
2018-05-24T06:39:49.421Z,4.00
2018-05-24T06:42:17.746Z,4.03
2018-05-24T06:44:46.090Z,3.53
2018-05-24T06:47:14.481Z,3.50
2018-05-24T06:49:42.779Z,3.30
2018-05-24T06:52:11.152Z,4.17
2018-05-24T06:54:39.489Z,2.90
2018-05-24T06:57:08.543Z,3.43
2018-05-24T06:59:36.948Z,3.10
2018-05-24T07:02:05.230Z,3.67
2018-05-24T07:04:33.511Z,3.80
2018-05-24T07:07:01.829Z,3.87
2018-05-24T07:09:30.205Z,3.53
2018-05-24T07:11:58.524Z,3.13
2018-05-24T07:14:27.611Z,3.57
2018-05-24T07:16:55.932Z,3.37
2018-05-24T07:19:25.000Z,3.40
2018-05-24T07:21:53.318Z,4.20
2018-05-24T07:24:22.374Z,3.80
2018-05-24T07:26:50.788Z,3.07
2018-05-24T07:29:19.181Z,3.10
2018-05-24T07:31:48.971Z,3.87
2018-05-24T07:34:17.298Z,3.50
2018-05-24T07:36:45.590Z,3.00
2018-05-24T07:39:15.513Z,3.40
2018-05-24T07:41:45.749Z,3.23
2018-05-24T07:44:14.034Z,3.63
2018-05-24T07:46:42.322Z,3.50
2018-05-24T07:49:10.640Z,3.00
2018-05-24T07:51:39.694Z,3.60
2018-05-24T07:54:08.028Z,2.97
2018-05-24T07:56:36.308Z,3.80
2018-05-24T07:59:04.594Z,3.70
2018-05-24T08:01:34.459Z,2.57
2018-05-24T08:04:02.805Z,3.80
2018-05-24T08:06:31.099Z,3.73
2018-05-24T08:08:59.390Z,4.63
2018-05-24T08:11:27.721Z,3.83
2018-05-24T08:13:56.001Z,2.33
2018-05-24T08:16:24.324Z,3.73
2018-05-24T08:18:52.657Z,3.03
2018-05-24T08:21:20.981Z,2.60
2018-05-24T08:23:49.325Z,2.77
2018-05-24T08:26:17.618Z,2.60
2018-05-24T08:28:45.955Z,3.23
2018-05-24T08:31:14.236Z,2.63
2018-05-24T08:33:42.520Z,3.00
2018-05-24T08:36:10.874Z,3.10
2018-05-24T08:38:39.160Z,3.37
2018-05-24T08:41:07.489Z,2.60
2018-05-24T08:43:35.778Z,2.50
2018-05-24T08:46:04.850Z,2.37
2018-05-24T08:48:33.178Z,2.50
2018-05-24T08:51:01.515Z,2.57
2018-05-24T08:53:30.101Z,1.73
2018-05-24T08:55:59.816Z,1.87
2018-05-24T08:58:28.107Z,1.97
2018-05-24T09:00:56.433Z,1.77
2018-05-24T09:03:24.808Z,2.13
2018-05-24T09:05:53.313Z,1.67
2018-05-24T09:08:22.372Z,2.30
2018-05-24T09:10:50.704Z,1.90
2018-05-24T09:13:20.538Z,2.80
2018-05-24T09:15:48.824Z,2.33
2018-05-24T09:18:17.169Z,1.50
2018-05-24T09:20:45.448Z,1.50
2018-05-24T09:23:13.737Z,1.80
2018-05-24T09:25:42.066Z,1.70
2018-05-24T09:28:10.385Z,2.30
2018-05-24T09:30:40.065Z,2.00
2018-05-24T09:33:08.359Z,1.83
2018-05-24T09:35:36.670Z,2.10
2018-05-24T09:38:05.003Z,1.57
2018-05-24T09:40:33.289Z,2.33
2018-05-24T09:43:01.622Z,2.23
2018-05-24T09:45:29.917Z,1.40
2018-05-24T09:47:58.312Z,1.93
2018-05-24T09:50:26.589Z,2.17
2018-05-24T09:52:54.877Z,2.03
2018-05-24T09:55:23.331Z,1.77
2018-05-24T09:57:51.521Z,2.00
2018-05-24T10:00:23.688Z,1.80
2018-05-24T10:02:52.737Z,1.50
2018-05-24T10:05:21.159Z,1.53
2018-05-24T10:07:49.445Z,1.80
2018-05-24T10:10:17.781Z,1.67
2018-05-24T10:12:46.065Z,1.47
2018-05-24T10:15:14.395Z,1.80
2018-05-24T10:17:42.682Z,1.80
2018-05-24T10:20:11.397Z,1.50
2018-05-24T10:22:39.676Z,1.10
2018-05-24T10:25:07.965Z,1.43
2018-05-24T10:27:36.365Z,1.93
2018-05-24T10:30:04.663Z,1.70
2018-05-24T10:32:32.986Z,1.53
2018-05-24T10:35:02.068Z,1.07
2018-05-24T10:37:30.348Z,1.70
2018-05-24T10:39:58.828Z,1.27
2018-05-24T10:42:27.112Z,1.50
2018-05-24T10:44:55.392Z,1.77
2018-05-24T10:47:23.722Z,1.57
2018-05-24T10:49:52.778Z,1.33
2018-05-24T10:52:21.070Z,1.70
2018-05-24T10:54:49.397Z,1.30
2018-05-24T10:57:17.681Z,1.67
2018-05-24T10:59:46.010Z,1.30
2018-05-24T11:02:14.357Z,1.20
2018-05-24T11:04:42.652Z,1.30
2018-05-24T11:07:10.934Z,1.60
2018-05-24T11:09:39.256Z,1.30
2018-05-24T11:12:08.314Z,1.57
2018-05-24T11:14:36.734Z,1.60
2018-05-24T11:17:06.548Z,1.07
2018-05-24T11:19:34.882Z,1.20
2018-05-24T11:22:03.173Z,1.47
2018-05-24T11:24:31.523Z,1.63
2018-05-24T11:26:59.817Z,1.10
2018-05-24T11:29:28.097Z,1.37
2018-05-24T11:31:56.522Z,2.00
2018-05-24T11:34:24.733Z,1.27
2018-05-24T11:36:53.018Z,1.10
2018-05-24T11:39:22.342Z,1.67
2018-05-24T11:41:50.650Z,1.27
2018-05-24T11:44:18.973Z,1.63
2018-05-24T11:46:47.355Z,1.47
2018-05-24T11:49:15.645Z,1.30
2018-05-24T11:51:44.337Z,1.00
2018-05-24T11:54:12.622Z,1.50
2018-05-24T11:56:41.008Z,1.10
2018-05-24T11:59:09.341Z,1.10
2018-05-24T12:01:38.405Z,1.50
2018-05-24T12:04:06.722Z,1.23
2018-05-24T12:06:35.813Z,1.10
2018-05-24T12:09:04.101Z,1.37
2018-05-24T12:11:32.429Z,1.50
2018-05-24T12:14:00.716Z,1.97
2018-05-24T12:16:29.781Z,1.17
2018-05-24T12:18:58.182Z,2.03
2018-05-24T12:21:26.877Z,1.20
2018-05-24T12:23:55.169Z,1.23
2018-05-24T12:26:23.450Z,1.40
2018-05-24T12:28:52.769Z,1.60
2018-05-24T12:31:21.161Z,1.40
2018-05-24T12:33:49.561Z,1.10
2018-05-24T12:36:18.652Z,1.93
2018-05-24T12:38:47.049Z,1.80
2018-05-24T12:41:15.369Z,1.30
2018-05-24T12:43:44.450Z,1.40
2018-05-24T12:46:12.766Z,1.03
2018-05-24T12:48:41.949Z,1.63
2018-05-24T12:51:10.350Z,1.70
2018-05-24T12:53:38.622Z,1.50
2018-05-24T12:56:07.309Z,1.20
2018-05-24T12:58:35.608Z,1.20
2018-05-24T13:01:03.897Z,1.00
2018-05-24T13:03:32.217Z,1.50
2018-05-24T13:06:01.309Z,2.00
2018-05-24T13:08:29.628Z,1.40
2018-05-24T13:10:58.706Z,1.30
2018-05-24T13:13:26.992Z,1.30
2018-05-24T13:15:56.289Z,1.17
2018-05-24T13:18:26.201Z,1.23
2018-05-24T13:20:54.517Z,1.10
2018-05-24T13:23:22.837Z,1.00
2018-05-24T13:25:51.889Z,1.37
2018-05-24T13:28:20.520Z,3.73
2018-05-24T13:30:48.982Z,1.40
2018-05-24T13:33:17.205Z,1.10
2018-05-24T13:35:45.582Z,1.40
2018-05-24T13:38:15.411Z,1.20
2018-05-24T13:40:43.796Z,1.20
2018-05-24T13:43:12.886Z,2.10
2018-05-24T13:45:41.170Z,1.23
2018-05-24T13:48:09.490Z,1.27
2018-05-24T13:50:37.783Z,1.10
2018-05-24T13:53:06.165Z,1.53
2018-05-24T13:55:34.490Z,1.50
2018-05-24T13:58:03.589Z,1.90
2018-05-24T14:00:32.641Z,1.20
2018-05-24T14:03:00.967Z,1.47
2018-05-24T14:05:29.525Z,1.47
2018-05-24T14:07:57.854Z,1.50
2018-05-24T14:10:26.178Z,1.50
2018-05-24T14:12:54.504Z,1.77
2018-05-24T14:15:22.808Z,1.73
2018-05-24T14:17:51.097Z,1.30
2018-05-24T14:20:19.418Z,1.50
2018-05-24T14:22:48.509Z,1.60
2018-05-24T14:25:16.792Z,1.30
2018-05-24T14:27:45.887Z,1.30
2018-05-24T14:30:14.597Z,1.83
2018-05-24T14:32:42.989Z,1.57
2018-05-24T14:35:11.284Z,2.07
2018-05-24T14:37:39.765Z,1.33
2018-05-24T14:40:08.053Z,1.40
2018-05-24T14:42:36.336Z,1.13
2018-05-24T14:45:04.663Z,1.90
2018-05-24T14:47:33.333Z,1.57
2018-05-24T14:50:02.623Z,1.30
2018-05-24T14:52:30.913Z,1.10
2018-05-24T14:54:59.238Z,1.03
2018-05-24T14:57:27.923Z,1.40
2018-05-24T14:59:56.311Z,1.30
2018-05-24T15:02:24.651Z,1.47
2018-05-24T15:04:53.001Z,1.60
2018-05-24T15:07:21.393Z,1.67
2018-05-24T15:09:49.713Z,1.23
2018-05-24T15:12:18.766Z,1.20
2018-05-24T15:14:47.079Z,1.30
2018-05-24T15:17:15.471Z,1.30
2018-05-24T15:19:43.786Z,1.47
2018-05-24T15:22:12.961Z,1.40
2018-05-24T15:24:41.245Z,1.37
2018-05-24T15:27:09.546Z,1.67
2018-05-24T15:29:37.865Z,1.60
2018-05-24T15:32:06.919Z,1.40
2018-05-24T15:34:35.437Z,1.30
2018-05-24T15:37:03.721Z,1.40
2018-05-24T15:39:32.006Z,1.80
2018-05-24T15:42:00.409Z,1.53
2018-05-24T15:44:28.728Z,1.80
2018-05-24T15:46:57.809Z,1.73
2018-05-24T15:49:26.297Z,1.80
2018-05-24T15:51:54.576Z,1.43
2018-05-24T15:54:23.676Z,2.00
2018-05-24T15:56:51.995Z,1.60
2018-05-24T15:59:20.266Z,1.80
2018-05-24T16:01:48.661Z,1.33
2018-05-24T16:04:17.052Z,1.53
2018-05-24T16:06:45.341Z,1.77
2018-05-24T16:09:13.656Z,1.60
2018-05-24T16:11:42.713Z,1.83
2018-05-24T16:14:11.045Z,1.80
2018-05-24T16:16:39.430Z,1.60
2018-05-24T16:19:07.740Z,1.47
2018-05-24T16:21:36.822Z,1.77
2018-05-24T16:24:06.617Z,1.47
2018-05-24T16:26:35.037Z,1.40
2018-05-24T16:29:03.329Z,1.80
2018-05-24T16:31:31.650Z,4.03
2018-05-24T16:34:00.783Z,1.47
2018-05-24T16:36:29.073Z,1.67
2018-05-24T16:38:57.613Z,1.80
2018-05-24T16:41:25.901Z,1.13
2018-05-24T16:43:54.185Z,1.53
2018-05-24T16:46:22.517Z,1.77
2018-05-24T16:48:51.074Z,1.90
2018-05-24T16:51:19.355Z,1.57
2018-05-24T16:53:47.638Z,1.77
2018-05-24T16:56:16.347Z,1.70
2018-05-24T16:58:44.633Z,1.37
2018-05-24T17:01:12.929Z,2.03
2018-05-24T17:03:41.409Z,2.03
2018-05-24T17:06:09.717Z,1.47
2018-05-24T17:08:38.005Z,1.77
2018-05-24T17:11:06.706Z,1.90
2018-05-24T17:13:34.988Z,2.57
2018-05-24T17:16:04.781Z,1.43
2018-05-24T17:18:33.101Z,1.40
2018-05-24T17:21:01.426Z,1.43
2018-05-24T17:23:30.485Z,1.70
2018-05-24T17:25:58.803Z,1.40
2018-05-24T17:28:27.197Z,1.60
2018-05-24T17:30:56.285Z,1.77
2018-05-24T17:33:24.606Z,1.97
2018-05-24T17:35:53.712Z,1.60
2018-05-24T17:38:23.202Z,1.80
2018-05-24T17:40:51.493Z,1.23
2018-05-24T17:43:19.785Z,1.40
2018-05-24T17:45:48.099Z,1.27
2018-05-24T17:48:17.155Z,1.50
2018-05-24T17:50:45.432Z,1.60
2018-05-24T17:53:13.744Z,2.50
2018-05-24T17:55:42.163Z,1.43
2018-05-24T17:58:10.537Z,1.60
2018-05-24T18:00:38.819Z,1.30
2018-05-24T18:03:07.143Z,1.97
2018-05-24T18:05:36.196Z,1.20
2018-05-24T18:08:04.513Z,1.40
2018-05-24T18:10:34.336Z,1.60
2018-05-24T18:13:02.842Z,1.60
2018-05-24T18:15:31.120Z,1.67
2018-05-24T18:17:59.409Z,1.60
2018-05-24T18:20:27.728Z,1.53
2018-05-24T18:22:57.882Z,1.50
2018-05-24T18:25:26.223Z,1.70
2018-05-24T18:27:54.506Z,1.80
2018-05-24T18:30:22.838Z,2.33
2018-05-24T18:32:51.884Z,2.00
2018-05-24T18:35:20.182Z,1.90
2018-05-24T18:37:48.501Z,1.80
2018-05-24T18:40:16.876Z,2.90
2018-05-24T18:42:45.287Z,2.27
2018-05-24T18:45:13.762Z,2.60
2018-05-24T18:47:42.049Z,1.53
2018-05-24T18:50:10.343Z,1.33
2018-05-24T18:52:38.666Z,1.73
2018-05-24T18:55:08.542Z,2.10
2018-05-24T18:57:37.249Z,1.50
2018-05-24T19:00:05.541Z,2.10
2018-05-24T19:02:33.830Z,1.80
2018-05-24T19:05:02.158Z,2.13
2018-05-24T19:07:31.231Z,1.50
2018-05-24T19:10:01.027Z,1.80
2018-05-24T19:12:29.758Z,1.80
2018-05-24T19:14:58.045Z,1.70
2018-05-24T19:17:26.333Z,2.10
2018-05-24T19:19:54.654Z,2.00
2018-05-24T19:22:23.770Z,1.80
2018-05-24T19:24:52.062Z,1.80
2018-05-24T19:27:20.352Z,1.67
2018-05-24T19:29:48.697Z,1.77
2018-05-24T19:32:17.784Z,1.77
2018-05-24T19:34:46.080Z,1.80
2018-05-24T19:37:14.380Z,2.00
2018-05-24T19:39:42.790Z,1.93
2018-05-24T19:42:11.073Z,1.93
2018-05-24T19:44:39.374Z,2.00
2018-05-24T19:47:08.565Z,1.70
2018-05-24T19:49:36.854Z,2.03
2018-05-24T19:52:06.681Z,1.90
2018-05-24T19:54:34.969Z,2.40
2018-05-24T19:57:03.259Z,3.10
2018-05-24T19:59:31.590Z,2.97
2018-05-24T20:02:00.652Z,2.30
2018-05-24T20:04:29.038Z,3.80
2018-05-24T20:06:57.413Z,2.57
2018-05-24T20:09:25.725Z,2.63
2018-05-24T20:11:54.149Z,2.40
2018-05-24T20:14:23.212Z,2.67
2018-05-24T20:16:51.853Z,2.97
2018-05-24T20:19:20.949Z,3.10
2018-05-24T20:21:49.252Z,3.30
2018-05-24T20:24:18.361Z,3.00
2018-05-24T20:26:47.474Z,3.20
2018-05-24T20:29:16.626Z,3.07
2018-05-24T20:31:44.932Z,3.70
2018-05-24T20:34:13.277Z,2.50
2018-05-24T20:36:41.647Z,3.17
2018-05-24T20:39:10.756Z,3.57
2018-05-24T20:41:39.833Z,4.23
2018-05-24T20:44:09.649Z,3.03
2018-05-24T20:46:37.984Z,3.03
2018-05-24T20:49:07.052Z,2.83
2018-05-24T20:51:35.357Z,2.53
2018-05-24T20:54:03.762Z,3.77
2018-05-24T20:56:32.828Z,3.00
2018-05-24T20:59:01.158Z,3.07
2018-05-24T21:01:30.266Z,3.33
2018-05-24T21:03:59.342Z,3.20
2018-05-24T21:06:27.693Z,3.30
2018-05-24T21:08:56.001Z,3.93
2018-05-24T21:11:24.313Z,3.00
2018-05-24T21:13:52.783Z,3.10
2018-05-24T21:16:21.068Z,3.60
2018-05-24T21:18:49.368Z,3.07
2018-05-24T21:21:17.813Z,3.00
2018-05-24T21:23:46.924Z,3.07
2018-05-24T21:26:15.998Z,2.93
2018-05-24T21:28:44.716Z,3.30
2018-05-24T21:31:13.025Z,3.60
2018-05-24T21:33:42.124Z,2.93
2018-05-24T21:36:11.332Z,3.50
2018-05-24T21:38:40.401Z,3.50
2018-05-24T21:41:08.730Z,4.30
2018-05-24T21:43:37.841Z,3.50
2018-05-24T21:46:06.953Z,3.77
2018-05-24T21:48:36.157Z,3.93
2018-05-24T21:51:05.234Z,3.27
2018-05-24T21:53:33.532Z,4.60
2018-05-24T21:56:01.869Z,4.13
2018-05-24T21:58:30.542Z,4.70
2018-05-24T22:00:59.617Z,4.20
2018-05-24T22:03:27.924Z,3.67
2018-05-24T22:05:56.716Z,3.70
2018-05-24T22:08:25.034Z,4.60
2018-05-24T22:10:54.131Z,3.20
2018-05-24T22:13:22.481Z,4.00
2018-05-24T22:15:50.791Z,4.00
2018-05-24T22:18:19.101Z,4.40
2018-05-24T22:20:47.436Z,3.80
2018-05-24T22:23:15.741Z,4.30
2018-05-24T22:25:44.081Z,4.00
2018-05-24T22:28:13.161Z,4.23
2018-05-24T22:30:43.021Z,4.23
2018-05-24T22:33:12.097Z,4.13
2018-05-24T22:35:40.437Z,4.27
2018-05-24T22:38:08.791Z,3.40
2018-05-24T22:40:37.874Z,3.80
2018-05-24T22:43:06.222Z,3.87
2018-05-24T22:45:34.533Z,3.70
2018-05-24T22:48:02.842Z,3.60
2018-05-24T22:50:31.365Z,4.63
2018-05-24T22:52:59.669Z,3.93
2018-05-24T22:55:28.742Z,3.60
2018-05-24T22:57:57.090Z,4.20
2018-05-24T23:00:25.419Z,4.87
2018-05-24T23:02:53.840Z,3.87
2018-05-24T23:05:23.157Z,4.77
2018-05-24T23:07:51.465Z,3.77
2018-05-24T23:10:19.772Z,4.60
2018-05-24T23:12:48.425Z,5.10
2018-05-24T23:15:16.733Z,3.83
2018-05-24T23:17:46.920Z,3.53
2018-05-24T23:20:15.261Z,4.47
2018-05-24T23:22:43.566Z,3.20
2018-05-24T23:25:11.917Z,4.70
2018-05-24T23:27:40.229Z,3.80
2018-05-24T23:30:09.337Z,4.50
2018-05-24T23:32:37.680Z,4.50
2018-05-24T23:35:06.106Z,5.43
2018-05-24T23:37:35.220Z,6.20
2018-05-24T23:40:03.550Z,4.33
2018-05-24T23:42:31.853Z,4.23
2018-05-24T23:45:00.502Z,4.77
2018-05-24T23:47:28.825Z,4.30
2018-05-24T23:49:57.233Z,4.20
2018-05-24T23:52:25.573Z,6.30
2018-05-24T23:54:54.781Z,3.97
2018-05-24T23:57:23.137Z,5.23
2018-05-24T23:59:51.448Z,5.40
